Navios*hios — SXJH — position and weather

sailwx.info

Track history (hours):
 
Tides and Currents Weather Stations Pressure Air Temp Water Temp Dewpoint Dewpoint Depression Visibility Wind Speed Wind Dir Waves Ship Positions

Navios*hios

Last reported at 2018-Mar-11 04:21 UTC. Time now 2018-Apr-21 15:40 UTC.
Position N 20°24' E 066°51'.
Warning: this ship's position is 41 days out of date.

Length 190 m; draft 9 m.

Type: Cargo ship. MMSI: 240149000.

Date/timePositionNaut miles runAvg speedWind from/ knotsBaromVisibWave heightAir tempDewpointWater temp
2018-Mar-11 04:21N 20°24' E 066°51'412.3
2018-Mar-11 04:00N 20°21' E 066°54'712.4
2018-Mar-11 03:28N 20°16' E 066°59'25912.3
2018-Mar-10 06:20N 17°02' E 070°00'412.2
2018-Mar-10 06:00N 16°59' E 070°03'712.1
2018-Mar-10 05:23N 16°53' E 070°08'512.2
2018-Mar-10 05:00N 16°49' E 070°11'612.3
2018-Mar-10 04:30N 16°45' E 070°16'712.3
2018-Mar-10 03:57N 16°40' E 070°20'3812.4
2018-Mar-10 00:55N 16°12' E 070°47'1212.0
2018-Mar-09 23:53N 16°03' E 070°56'1512.0
2018-Mar-09 22:40N 15°52' E 071°06'212.0
2018-Mar-09 22:30N 15°51' E 071°07'3211.8
2018-Mar-09 19:45N 15°27' E 071°30'411.9
2018-Mar-09 19:23N 15°24' E 071°33'612.0
2018-Mar-09 18:53N 15°19' E 071°37'  
2018-Mar-02 13:42N 01°17' E 103°20'312.7
2018-Mar-02 13:29N 01°16' E 103°22'713.0
2018-Mar-02 12:56N 01°13' E 103°29'613.6
2018-Mar-02 12:30N 01°12' E 103°35'713.3
2018-Mar-02 11:59N 01°10' E 103°41'510.8
2018-Mar-02 11:30N 01°10' E 103°46'511.1
2018-Mar-02 11:00N 01°12' E 103°51'510.1
2018-Mar-02 10:30N 01°14' E 103°56'4 7.7
2018-Mar-02 10:00N 01°16' E 103°59'2 2.9
2018-Mar-02 09:21N 01°17' E 104°00'0 0.0
2018-Mar-02 06:57N 01°17' E 104°00'0 0.1
2018-Mar-02 06:12N 01°17' E 104°00'0 0.1
2018-Mar-02 06:00N 01°17' E 104°00'0 0.1
2018-Mar-02 03:42N 01°17' E 104°00'0 0.0
2018-Mar-02 03:21N 01°17' E 104°00'0 0.0
2018-Mar-02 02:51N 01°17' E 104°00'0 0.0
2018-Mar-01 23:41N 01°17' E 104°00'0 1.9
2018-Mar-01 23:30N 01°17' E 104°00'4 6.0
2018-Mar-01 22:52N 01°16' E 104°04'  
Track history (hours):
 
Tides and Currents Weather Stations Pressure Air Temp Water Temp Dewpoint Dewpoint Depression Visibility Wind Speed Wind Dir Waves Ship Positions

Navios*hios

Last reported at 2018-Mar-11 04:21 UTC. Time now 2018-Apr-21 15:40 UTC.
Position N 20°24' E 066°51'.
Warning: this ship's position is 41 days out of date.

Length 190 m; draft 9 m.

Type: Cargo ship. MMSI: 240149000.

Date/timePositionNaut miles runAvg speedWind from/ knotsBaromVisibWave heightAir tempDewpointWater temp
2018-Mar-11 04:21N 20°24' E 066°51'412.3
2018-Mar-11 04:00N 20°21' E 066°54'712.4
2018-Mar-11 03:28N 20°16' E 066°59'25912.3
2018-Mar-10 06:20N 17°02' E 070°00'412.2
2018-Mar-10 06:00N 16°59' E 070°03'712.1
2018-Mar-10 05:23N 16°53' E 070°08'512.2
2018-Mar-10 05:00N 16°49' E 070°11'612.3
2018-Mar-10 04:30N 16°45' E 070°16'712.3
2018-Mar-10 03:57N 16°40' E 070°20'3812.4
2018-Mar-10 00:55N 16°12' E 070°47'1212.0
2018-Mar-09 23:53N 16°03' E 070°56'1512.0
2018-Mar-09 22:40N 15°52' E 071°06'212.0
2018-Mar-09 22:30N 15°51' E 071°07'3211.8
2018-Mar-09 19:45N 15°27' E 071°30'411.9
2018-Mar-09 19:23N 15°24' E 071°33'612.0
2018-Mar-09 18:53N 15°19' E 071°37'  
2018-Mar-02 13:42N 01°17' E 103°20'312.7
2018-Mar-02 13:29N 01°16' E 103°22'713.0
2018-Mar-02 12:56N 01°13' E 103°29'613.6
2018-Mar-02 12:30N 01°12' E 103°35'713.3
2018-Mar-02 11:59N 01°10' E 103°41'510.8
2018-Mar-02 11:30N 01°10' E 103°46'511.1
2018-Mar-02 11:00N 01°12' E 103°51'510.1
2018-Mar-02 10:30N 01°14' E 103°56'4 7.7
2018-Mar-02 10:00N 01°16' E 103°59'2 2.9
2018-Mar-02 09:21N 01°17' E 104°00'0 0.0
2018-Mar-02 06:57N 01°17' E 104°00'0 0.1
2018-Mar-02 06:12N 01°17' E 104°00'0 0.1
2018-Mar-02 06:00N 01°17' E 104°00'0 0.1
2018-Mar-02 03:42N 01°17' E 104°00'0 0.0
2018-Mar-02 03:21N 01°17' E 104°00'0 0.0
2018-Mar-02 02:51N 01°17' E 104°00'0 0.0
2018-Mar-01 23:41N 01°17' E 104°00'0 1.9
2018-Mar-01 23:30N 01°17' E 104°00'4 6.0
2018-Mar-01 22:52N 01°16' E 104°04'  

Dump ship's entire track history